Time;durP1;ratioP1;P1;durP2;ratioP2;P2;SDS_P1;SDS_P2;PMS_P1;PMS_P2;Temp;Humidity;BMP_temperature;BMP_pressure;BME280_temperature;BME280_humidity;BME280_pressure;Samples;Min_cycle;Max_cycle;Signal;HPM_P1;HPM_P2
2021/11/02 00:01:15;;;;;;;0.10;0.10;;;6.50;99.90;;;;;;6247377;22;20019;-83
2021/11/02 00:03:41;;;;;;;0.10;0.10;;;6.50;99.90;;;;;;6248262;22;20089;-81
2021/11/02 00:06:08;;;;;;;0.10;0.10;;;6.40;99.90;;;;;;6299337;22;20471;-82
2021/11/02 00:08:36;;;;;;;0.05;0.05;;;6.40;99.90;;;;;;6323465;22;20130;-81
2021/11/02 00:11:03;;;;;;;0.10;0.10;;;6.40;99.90;;;;;;6298616;22;20424;-81
2021/11/02 00:13:35;;;;;;;0.10;0.10;;;6.40;99.90;;;;;;6297996;22;20015;-81
2021/11/02 00:16:04;;;;;;;0.10;0.10;;;6.40;99.90;;;;;;6275438;22;20474;-82
2021/11/02 00:18:31;;;;;;;0.10;0.10;;;6.30;99.90;;;;;;6297870;22;20016;-85
2021/11/02 00:21:00;;;;;;;0.10;0.10;;;6.30;99.90;;;;;;6299180;22;20018;-85
2021/11/02 00:23:38;;;;;;;0.10;0.10;;;6.60;99.90;;;;;;6275435;22;20015;-85
2021/11/02 00:26:13;;;;;;;0.10;0.10;;;6.40;99.90;;;;;;6299863;22;20321;-85
2021/11/02 00:28:40;;;;;;;0.10;0.10;;;6.30;99.90;;;;;;6297702;22;20077;-85
2021/11/02 00:31:07;;;;;;;0.10;0.10;;;6.30;99.90;;;;;;6274105;22;20022;-82
2021/11/02 00:33:33;;;;;;;0.10;0.10;;;6.30;99.90;;;;;;6299906;22;20451;-82
2021/11/02 00:36:00;;;;;;;0.10;0.10;;;6.30;99.90;;;;;;6325006;22;20021;-82
2021/11/02 00:38:27;;;;;;;0.10;0.10;;;6.30;99.90;;;;;;6297192;22;20416;-85
2021/11/02 00:40:54;;;;;;;0.10;0.10;;;6.30;99.90;;;;;;6299010;22;20016;-85
2021/11/02 00:43:24;;;;;;;0.10;0.10;;;6.30;99.90;;;;;;6272738;22;20079;-85
2021/11/02 00:45:50;;;;;;;0.10;0.10;;;6.30;99.90;;;;;;6252145;22;20015;-85
2021/11/02 00:48:24;;;;;;;0.10;0.10;;;6.30;99.90;;;;;;6300181;22;20366;-82
2021/11/02 00:50:51;;;;;;;0.10;0.10;;;6.30;99.90;;;;;;6302445;22;20019;-81
2021/11/02 00:53:18;;;;;;;0.10;0.10;;;6.30;99.90;;;;;;6325218;22;20011;-81
2021/11/02 00:55:45;;;;;;;0.10;0.10;;;7.00;99.90;;;;;;6326284;22;20026;-82
2021/11/02 00:58:12;;;;;;;0.10;0.10;;;6.40;99.90;;;;;;6300211;22;20793;-81
2021/11/02 01:00:39;;;;;;;0.10;0.10;;;6.30;99.90;;;;;;6249161;22;20019;-81
2021/11/02 01:03:07;;;;;;;0.10;0.10;;;6.20;99.90;;;;;;6276137;22;20008;-85
2021/11/02 01:05:34;;;;;;;0.10;0.10;;;6.20;99.90;;;;;;6301383;22;20023;-84
2021/11/02 01:08:02;;;;;;;0.10;0.10;;;6.20;99.90;;;;;;6325749;22;20101;-81
2021/11/02 01:10:30;;;;;;;0.10;0.10;;;6.20;99.90;;;;;;6274438;22;20007;-84
2021/11/02 01:12:57;;;;;;;0.10;0.10;;;6.20;99.90;;;;;;6301077;22;20094;-86
2021/11/02 01:15:29;;;;;;;0.10;0.10;;;6.20;99.90;;;;;;6299644;22;20073;-84
2021/11/02 01:17:56;;;;;;;0.10;0.10;;;6.20;99.90;;;;;;6326414;22;20023;-85
2021/11/02 01:20:25;;;;;;;0.10;0.10;;;6.20;99.90;;;;;;6299500;22;20065;-84
2021/11/02 01:22:53;;;;;;;0.10;0.10;;;6.20;99.90;;;;;;6301775;22;20085;-82
2021/11/02 01:25:21;;;;;;;0.10;0.10;;;6.20;99.90;;;;;;6325366;22;20026;-85
2021/11/02 01:27:49;;;;;;;0.10;0.10;;;6.20;99.90;;;;;;6273927;22;20077;-85
2021/11/02 01:30:15;;;;;;;0.10;0.10;;;6.20;99.90;;;;;;6299967;22;20078;-85
2021/11/02 01:32:44;;;;;;;0.10;0.10;;;6.20;99.90;;;;;;6324482;22;20045;-86
2021/11/02 01:35:11;;;;;;;0.10;0.10;;;6.20;99.90;;;;;;6251225;22;20066;-86
2021/11/02 01:37:41;;;;;;;0.10;0.10;;;6.20;99.90;;;;;;6298740;22;20089;-86
2021/11/02 01:40:12;;;;;;;0.10;0.10;;;6.20;99.90;;;;;;6275765;22;20050;-83
2021/11/02 01:42:39;;;;;;;0.10;0.10;;;6.20;99.90;;;;;;6300240;22;20459;-86
2021/11/02 01:45:09;;;;;;;0.10;0.10;;;6.20;99.90;;;;;;6300989;22;20019;-87
2021/11/02 01:47:43;;;;;;;0.10;0.10;;;6.20;99.90;;;;;;6273741;22;20076;-81
2021/11/02 01:50:11;;;;;;;0.10;0.10;;;6.20;99.90;;;;;;6299697;22;20022;-82
2021/11/02 01:52:40;;;;;;;0.10;0.10;;;6.20;99.90;;;;;;6301375;22;20011;-82
2021/11/02 01:55:11;;;;;;;0.10;0.10;;;6.20;99.90;;;;;;6275987;22;20347;-82
2021/11/02 01:57:39;;;;;;;0.10;0.10;;;6.10;99.90;;;;;;6276682;22;20011;-85
2021/11/02 02:00:10;;;;;;;0.10;0.10;;;6.10;99.90;;;;;;6273937;22;20026;-82
2021/11/02 02:02:50;;;;;;;0.10;0.10;;;6.10;99.90;;;;;;6298949;22;20447;-82
2021/11/02 02:05:34;;;;;;;0.10;0.10;;;6.10;99.90;;;;;;6301236;22;20046;-85
2021/11/02 02:08:29;;;;;;;0.10;0.10;;;6.10;99.90;;;;;;6299183;22;20019;-82
2021/11/02 02:11:12;;;;;;;0.10;0.10;;;6.40;99.90;;;;;;6299284;22;20015;-85
2021/11/02 02:14:02;;;;;;;0.10;0.10;;;6.10;99.90;;;;;;6324013;22;20514;-81
2021/11/02 02:16:34;;;;;;;0.10;0.10;;;6.00;99.90;;;;;;6280613;22;20019;-85
2021/11/02 02:19:24;;;;;;;0.10;0.10;;;6.00;99.90;;;;;;6301093;22;20019;-85
2021/11/02 02:22:07;;;;;;;0.10;0.10;;;6.00;99.90;;;;;;6240427;22;20023;-85
2021/11/02 02:25:09;;;;;;;0.10;0.10;;;6.00;99.90;;;;;;6300108;22;20029;-84
2021/11/02 02:27:45;;;;;;;0.13;0.13;;;6.00;99.90;;;;;;6264363;22;20051;-84
2021/11/02 02:30:16;;;;;;;0.10;0.10;;;6.00;99.90;;;;;;6299818;22;20015;-81
2021/11/02 02:32:47;;;;;;;0.10;0.10;;;6.00;99.90;;;;;;6301973;22;20015;-85
2021/11/02 02:35:18;;;;;;;0.10;0.10;;;6.00;99.90;;;;;;6298939;22;20046;-81
2021/11/02 02:37:47;;;;;;;0.10;0.10;;;5.90;99.90;;;;;;6298878;22;20019;-81
2021/11/02 02:40:15;;;;;;;0.10;0.10;;;5.90;99.90;;;;;;6299071;22;20019;-81
2021/11/02 02:42:45;;;;;;;0.10;0.10;;;6.20;99.90;;;;;;6297801;22;20456;-82
2021/11/02 02:45:15;;;;;;;0.10;0.10;;;5.90;99.90;;;;;;6324182;22;20058;-85
2021/11/02 02:47:44;;;;;;;0.10;0.10;;;5.90;99.90;;;;;;6324985;22;20016;-85
2021/11/02 02:50:11;;;;;;;0.10;0.10;;;5.90;99.90;;;;;;6273697;22;20037;-85
2021/11/02 02:52:40;;;;;;;0.10;0.10;;;5.80;99.90;;;;;;6274020;22;20015;-84
2021/11/02 02:55:08;;;;;;;0.10;0.10;;;5.90;99.90;;;;;;6299119;22;20339;-86
2021/11/02 02:57:36;;;;;;;0.10;0.10;;;5.90;99.90;;;;;;6272999;22;20022;-84
2021/11/02 03:00:04;;;;;;;0.10;0.10;;;5.80;99.90;;;;;;6300125;22;20474;-85
2021/11/02 03:02:33;;;;;;;0.10;0.10;;;5.80;99.90;;;;;;6299870;22;20015;-85
2021/11/02 03:05:04;;;;;;;0.10;0.10;;;6.10;99.90;;;;;;6274144;22;20452;-83
2021/11/02 03:07:31;;;;;;;0.10;0.10;;;5.80;99.90;;;;;;6298649;22;20008;-84
2021/11/02 03:09:58;;;;;;;0.10;0.10;;;5.90;99.90;;;;;;6325118;22;20386;-82
2021/11/02 03:12:29;;;;;;;0.10;0.10;;;5.80;99.90;;;;;;6298277;22;20090;-81
2021/11/02 03:18:15;;;;;;;0.10;0.10;;;5.80;99.90;;;;;;6277507;22;20481;-85
2021/11/02 03:51:14;;;;;;;0.10;0.10;;;5.80;99.90;;;;;;6324332;22;20023;-82
2021/11/02 03:56:40;;;;;;;0.10;0.10;;;5.90;99.90;;;;;;6299069;22;20012;-85
2021/11/02 05:59:35;;;;;;;0.10;0.10;;;5.30;99.90;;;;;;6300981;22;20019;-87
2021/11/02 06:10:33;;;;;;;0.10;0.10;;;5.30;99.90;;;;;;6323129;22;20141;-83
2021/11/02 06:33:41;;;;;;;0.10;0.10;;;5.10;99.90;;;;;;6200515;23;20025;-86
2021/11/02 06:36:30;;;;;;;0.15;0.15;;;5.20;99.90;;;;;;6199932;23;20017;-83
2021/11/02 06:45:07;;;;;;;0.10;0.10;;;5.10;99.90;;;;;;6301917;22;20019;-86
2021/11/02 07:18:46;;;;;;;0.10;0.10;;;5.60;99.90;;;;;;6215295;22;20025;-85
2021/11/02 07:21:45;;;;;;;0.10;0.10;;;5.60;99.90;;;;;;6297918;22;20027;-83
2021/11/02 07:24:08;;;;;;;0.10;0.10;;;5.90;99.90;;;;;;6300887;22;20088;-83
2021/11/02 07:26:49;;;;;;;0.10;0.10;;;5.70;99.90;;;;;;6249852;22;20093;-85
2021/11/02 08:48:06;;;;;;;;;;;6.90;99.90;;;;;;6276347;22;20022;-90
2021/11/02 08:50:43;;;;;;;0.10;0.10;;;7.00;99.90;;;;;;6271662;22;19911;-82
2021/11/02 08:53:12;;;;;;;0.10;0.10;;;7.00;99.90;;;;;;6297573;22;20065;-87
2021/11/02 08:55:44;;;;;;;0.10;0.10;;;7.00;99.90;;;;;;6272371;22;20011;-82
2021/11/02 08:58:11;;;;;;;0.10;0.10;;;7.10;99.90;;;;;;6323088;22;20371;-87
2021/11/02 09:00:41;;;;;;;0.10;0.10;;;7.30;99.90;;;;;;6297072;22;20027;-87
2021/11/02 09:03:15;;;;;;;0.10;0.10;;;7.10;99.90;;;;;;6297854;22;20011;-87
2021/11/02 09:05:44;;;;;;;0.10;0.10;;;7.20;99.90;;;;;;6298446;22;20117;-79
2021/11/02 09:08:11;;;;;;;0.03;0.03;;;7.20;99.90;;;;;;6299156;22;20015;-79
2021/11/02 09:10:40;;;;;;;0.10;0.10;;;7.30;99.90;;;;;;6249413;22;20078;-81
2021/11/02 09:13:09;;;;;;;0.10;0.10;;;7.20;99.90;;;;;;6299154;22;20470;-87
2021/11/02 09:15:37;;;;;;;0.10;0.10;;;7.30;99.90;;;;;;6274161;22;20012;-87
2021/11/02 09:18:07;;;;;;;0.10;0.10;;;7.30;99.90;;;;;;6299035;22;20019;-88
2021/11/02 09:20:36;;;;;;;0.10;0.10;;;7.30;99.90;;;;;;6298740;22;20089;-86
2021/11/02 09:23:08;;;;;;;0.10;0.10;;;7.40;99.90;;;;;;6299510;22;20019;-80
2021/11/02 09:25:35;;;;;;;0.10;0.10;;;7.40;99.90;;;;;;6298297;22;20057;-88
2021/11/02 09:28:02;;;;;;;0.10;0.10;;;7.50;99.90;;;;;;6324766;22;20016;-87
2021/11/02 09:30:29;;;;;;;0.03;0.03;;;7.50;99.90;;;;;;6298360;22;20098;-80
2021/11/02 09:32:57;;;;;;;0.10;0.10;;;7.60;99.90;;;;;;6298547;22;20015;-80
2021/11/02 09:35:27;;;;;;;0.10;0.10;;;7.60;99.90;;;;;;6273812;22;20026;-82
2021/11/02 09:38:02;;;;;;;0.10;0.10;;;8.00;99.90;;;;;;6299351;22;20058;-88
2021/11/02 09:40:29;;;;;;;0.10;0.10;;;7.70;99.90;;;;;;6297984;22;20094;-87
2021/11/02 09:43:04;;;;;;;0.10;0.10;;;7.70;99.90;;;;;;6299305;22;20112;-80
2021/11/02 09:46:11;;;;;;;0.10;0.10;;;7.70;99.90;;;;;;6324128;22;20688;-80
2021/11/02 09:48:37;;;;;;;0.10;0.10;;;7.80;99.90;;;;;;6298634;22;20019;-80
2021/11/02 09:51:19;;;;;;;0.05;0.05;;;7.80;99.90;;;;;;6324351;22;20026;-86
2021/11/02 09:54:00;;;;;;;0.03;0.03;;;7.90;99.90;;;;;;6298823;22;20011;-88
2021/11/02 09:56:37;;;;;;;0.00;0.00;;;7.90;99.90;;;;;;6323829;22;20011;-80
2021/11/02 09:59:40;;;;;;;0.00;0.00;;;8.00;99.90;;;;;;6298878;22;20021;-87
2021/11/02 10:02:18;;;;;;;0.10;0.10;;;8.10;99.90;;;;;;6298463;22;20019;-84
2021/11/02 10:05:13;;;;;;;0.10;0.10;;;8.10;99.90;;;;;;6298046;22;20007;-79
2021/11/02 10:08:06;;;;;;;0.10;0.10;;;8.10;99.90;;;;;;6298015;22;20015;-87
2021/11/02 10:10:48;;;;;;;0.10;0.10;;;8.20;99.90;;;;;;6299127;22;20019;-79
2021/11/02 10:13:17;;;;;;;0.10;0.10;;;8.20;99.90;;;;;;6298634;22;20464;-85
2021/11/02 10:16:01;;;;;;;0.10;0.10;;;8.30;99.90;;;;;;6298595;22;20019;-79
2021/11/02 10:18:40;;;;;;;0.03;0.03;;;8.40;99.90;;;;;;6297989;22;20019;-85
2021/11/02 10:21:22;;;;;;;0.22;0.22;;;8.40;99.90;;;;;;6325096;22;20474;-87
2021/11/02 10:24:20;;;;;;;0.13;0.13;;;8.40;99.90;;;;;;6323661;22;20355;-88
2021/11/02 10:26:52;;;;;;;0.10;0.10;;;8.50;99.90;;;;;;6299217;22;20027;-80
2021/11/02 10:29:39;;;;;;;0.00;0.00;;;8.50;99.90;;;;;;6298890;22;20016;-87
2021/11/02 10:32:14;;;;;;;0.05;0.05;;;8.60;99.90;;;;;;6324741;22;20490;-80
2021/11/02 10:35:03;;;;;;;0.10;0.10;;;8.60;99.90;;;;;;6298402;22;20011;-88
2021/11/02 10:37:33;;;;;;;0.10;0.10;;;8.70;99.90;;;;;;6325077;22;20027;-87
2021/11/02 10:40:10;;;;;;;0.20;0.10;;;8.80;99.90;;;;;;6299377;22;20020;-80
2021/11/02 10:43:00;;;;;;;0.00;0.00;;;8.80;99.90;;;;;;6297710;22;20021;-80
2021/11/02 10:45:30;;;;;;;0.08;0.08;;;8.70;99.90;;;;;;6298205;22;20073;-81
2021/11/02 10:48:11;;;;;;;0.05;0.05;;;8.80;99.90;;;;;;6298819;22;20096;-88
2021/11/02 10:50:47;;;;;;;0.10;0.10;;;8.80;99.90;;;;;;6297775;22;20344;-80
2021/11/02 10:53:35;;;;;;;0.10;0.10;;;8.80;99.90;;;;;;6302025;22;20027;-80
2021/11/02 10:56:08;;;;;;;0.00;0.00;;;8.80;99.90;;;;;;6301149;22;20073;-79
2021/11/02 10:58:36;;;;;;;0.00;0.00;;;8.90;99.90;;;;;;6305653;22;20093;-84
2021/11/02 11:01:08;;;;;;;0.10;0.10;;;8.90;99.90;;;;;;6275873;22;20011;-87
2021/11/02 11:03:36;;;;;;;0.10;0.10;;;8.90;99.90;;;;;;6299187;22;20045;-87
2021/11/02 11:06:14;;;;;;;0.10;0.10;;;8.90;99.90;;;;;;6273977;22;20019;-82
2021/11/02 11:08:43;;;;;;;0.22;0.22;;;9.00;99.90;;;;;;6323713;22;20016;-87
2021/11/02 11:11:17;;;;;;;0.00;0.00;;;9.00;99.90;;;;;;6274493;22;20042;-87
2021/11/02 11:13:46;;;;;;;0.05;0.03;;;9.00;99.90;;;;;;6298444;22;20059;-83
2021/11/02 11:16:20;;;;;;;0.05;0.05;;;9.10;99.90;;;;;;6299165;22;20022;-80
2021/11/02 11:18:52;;;;;;;0.10;0.10;;;9.10;99.90;;;;;;6297238;22;20046;-85
2021/11/02 11:21:24;;;;;;;0.00;0.00;;;9.20;99.90;;;;;;6298655;22;20099;-84
2021/11/02 11:24:04;;;;;;;0.00;0.00;;;9.20;99.90;;;;;;6297778;22;20098;-81
2021/11/02 11:26:31;;;;;;;0.10;0.10;;;9.20;99.90;;;;;;6297639;22;20412;-86
2021/11/02 11:29:02;;;;;;;0.10;0.10;;;9.20;99.90;;;;;;6272776;22;20061;-81
2021/11/02 11:31:29;;;;;;;0.00;0.00;;;9.20;99.90;;;;;;6273945;22;20023;-82
2021/11/02 11:34:05;;;;;;;0.00;0.00;;;9.30;99.90;;;;;;6324935;22;20015;-86
2021/11/02 11:36:33;;;;;;;0.00;0.00;;;9.30;99.90;;;;;;6324900;22;20336;-82
2021/11/02 11:39:03;;;;;;;0.05;0.05;;;9.30;99.90;;;;;;6272874;22;20077;-82
2021/11/02 11:41:34;;;;;;;0.20;0.20;;;9.40;99.90;;;;;;6323932;22;20022;-82
2021/11/02 11:44:04;;;;;;;0.00;0.00;;;9.30;99.90;;;;;;6297159;22;20019;-87
2021/11/02 11:46:32;;;;;;;0.10;0.10;;;9.30;99.90;;;;;;6298119;22;20015;-82
2021/11/02 11:49:00;;;;;;;0.13;0.13;;;9.30;99.90;;;;;;6298647;22;20105;-87
2021/11/02 11:51:29;;;;;;;0.10;0.10;;;9.40;99.90;;;;;;6298619;22;20097;-82
2021/11/02 11:53:58;;;;;;;0.10;0.10;;;9.50;99.90;;;;;;6298163;22;20015;-85
2021/11/02 11:56:31;;;;;;;0.10;0.10;;;9.50;99.90;;;;;;6298715;22;20448;-82
2021/11/02 11:58:58;;;;;;;0.10;0.10;;;9.20;99.90;;;;;;6298599;22;20015;-87
2021/11/02 12:01:27;;;;;;;0.00;0.00;;;9.60;99.90;;;;;;6298153;22;20062;-87
2021/11/02 12:04:01;;;;;;;0.00;0.00;;;9.70;99.90;;;;;;6297499;22;20019;-86
2021/11/02 12:06:34;;;;;;;0.05;0.05;;;10.00;99.90;;;;;;6323854;22;20023;-82
2021/11/02 12:09:07;;;;;;;0.00;0.00;;;9.80;99.90;;;;;;6297991;22;20558;-86
2021/11/02 12:11:35;;;;;;;0.00;0.00;;;9.80;99.90;;;;;;6298273;22;20015;-86
2021/11/02 12:14:26;;;;;;;0.10;0.10;;;9.80;99.90;;;;;;6297655;22;20019;-86
2021/11/02 12:17:02;;;;;;;0.00;0.00;;;9.70;99.90;;;;;;6322605;22;20068;-82
2021/11/02 12:19:36;;;;;;;0.00;0.00;;;9.70;99.90;;;;;;6298279;22;20019;-89
2021/11/02 12:22:07;;;;;;;0.20;0.20;;;9.80;99.90;;;;;;6297699;22;20042;-83
2021/11/02 12:24:35;;;;;;;0.00;0.00;;;9.80;99.90;;;;;;6297211;22;20027;-85
2021/11/02 12:27:21;;;;;;;0.00;0.00;;;9.80;99.90;;;;;;6297354;22;20019;-85
2021/11/02 12:29:51;;;;;;;0.00;0.00;;;9.80;99.90;;;;;;6297917;22;20018;-85
2021/11/02 12:32:22;;;;;;;0.00;0.00;;;9.80;99.90;;;;;;6299774;22;20445;-89
2021/11/02 12:35:05;;;;;;;0.10;0.10;;;9.80;99.90;;;;;;6298922;22;20047;-89
2021/11/02 12:37:34;;;;;;;0.03;0.03;;;9.80;99.90;;;;;;6274737;22;20057;-85
2021/11/02 12:40:16;;;;;;;0.00;0.00;;;9.80;99.90;;;;;;6300436;22;20030;-89
2021/11/02 12:42:44;;;;;;;0.00;0.00;;;9.80;99.90;;;;;;6300120;22;20355;-85
2021/11/02 12:45:12;;;;;;;0.00;0.00;;;9.80;99.90;;;;;;6276300;22;20417;-86
2021/11/02 12:47:41;;;;;;;0.05;0.05;;;9.80;99.90;;;;;;6249504;22;20015;-88
2021/11/02 12:50:09;;;;;;;0.00;0.00;;;9.80;99.90;;;;;;6275070;22;20015;-88
2021/11/02 12:52:38;;;;;;;0.05;0.05;;;9.80;99.90;;;;;;6276175;22;20065;-85
2021/11/02 12:55:19;;;;;;;0.03;0.03;;;9.80;99.90;;;;;;6300646;22;20015;-86
2021/11/02 12:57:48;;;;;;;0.00;0.00;;;9.80;99.90;;;;;;6301123;22;20015;-84
2021/11/02 13:00:26;;;;;;;0.00;0.00;;;9.90;99.90;;;;;;6300021;22;20015;-85
2021/11/02 13:03:02;;;;;;;0.00;0.00;;;9.90;99.90;;;;;;6300960;22;20019;-85
2021/11/02 13:05:29;;;;;;;;;;;9.90;99.90;;;;;;6300286;22;20089;-86
2021/11/02 13:08:07;;;;;;;0.00;0.00;;;9.90;99.90;;;;;;6298751;22;19938;-85
2021/11/02 13:10:35;;;;;;;0.08;0.08;;;10.00;99.90;;;;;;6300751;22;20022;-89
2021/11/02 13:13:13;;;;;;;0.00;0.00;;;10.00;99.90;;;;;;6324380;22;20046;-85
2021/11/02 13:15:57;;;;;;;0.00;0.00;;;10.00;99.90;;;;;;6326144;22;20042;-86
2021/11/02 13:18:37;;;;;;;0.00;0.00;;;10.00;99.90;;;;;;6299767;22;20077;-89
2021/11/02 13:21:29;;;;;;;0.10;0.10;;;10.00;99.90;;;;;;6325670;22;20019;-89
2021/11/02 13:23:59;;;;;;;0.00;0.00;;;10.10;99.90;;;;;;6300044;22;20019;-85
2021/11/02 13:26:26;;;;;;;0.03;0.03;;;10.00;99.90;;;;;;6301119;22;20020;-89
2021/11/02 13:29:12;;;;;;;0.00;0.00;;;10.00;99.90;;;;;;6274545;22;20016;-84
2021/11/02 13:31:40;;;;;;;0.10;0.10;;;9.90;99.90;;;;;;6299744;22;20012;-88
2021/11/02 13:34:09;;;;;;;0.10;0.10;;;9.90;99.90;;;;;;6250034;22;20022;-88
2021/11/02 13:36:37;;;;;;;0.00;0.00;;;9.90;99.90;;;;;;6301288;22;20018;-89
2021/11/02 13:39:06;;;;;;;0.00;0.00;;;9.80;99.90;;;;;;6301062;22;20007;-84
2021/11/02 13:41:39;;;;;;;0.00;0.00;;;9.70;99.90;;;;;;6325516;22;20015;-85
2021/11/02 13:44:08;;;;;;;0.00;0.00;;;9.70;99.90;;;;;;6300284;22;20066;-84
2021/11/02 13:46:49;;;;;;;0.00;0.00;;;9.70;99.90;;;;;;6326730;22;20015;-89
2021/11/02 13:49:18;;;;;;;0.00;0.00;;;9.60;99.90;;;;;;6297971;22;20007;-84
2021/11/02 13:51:46;;;;;;;0.00;0.00;;;9.60;99.90;;;;;;6274429;22;20440;-89
2021/11/02 13:54:13;;;;;;;0.10;0.10;;;9.50;99.90;;;;;;6276074;22;20011;-88
2021/11/02 13:56:43;;;;;;;0.00;0.00;;;9.50;99.90;;;;;;6326571;22;20464;-85
2021/11/02 13:59:10;;;;;;;0.00;0.00;;;9.50;99.90;;;;;;6300072;22;20054;-88
2021/11/02 14:01:46;;;;;;;0.30;0.30;;;9.50;99.90;;;;;;6273872;22;20093;-83
2021/11/02 14:04:20;;;;;;;0.00;0.00;;;9.50;99.90;;;;;;6299391;22;20019;-88
2021/11/02 14:06:49;;;;;;;0.00;0.00;;;9.50;99.90;;;;;;6324634;22;20090;-85
2021/11/02 14:09:25;;;;;;;0.00;0.00;;;9.50;99.90;;;;;;6300372;22;20020;-87
2021/11/02 14:11:51;;;;;;;0.00;0.00;;;9.50;99.90;;;;;;6300193;22;20018;-83
2021/11/02 14:14:38;;;;;;;0.00;0.00;;;9.50;99.90;;;;;;6275001;22;20007;-88
2021/11/02 14:17:14;;;;;;;;;;;9.50;99.90;;;;;;6275485;22;20106;-84
2021/11/02 14:19:41;;;;;;;0.00;0.00;;;9.40;99.90;;;;;;6300211;22;19910;-84
2021/11/02 14:22:10;;;;;;;0.22;0.10;;;9.40;99.90;;;;;;6249088;22;20396;-84
2021/11/02 14:24:39;;;;;;;0.00;0.00;;;9.30;99.90;;;;;;6298721;22;20023;-90
2021/11/02 14:27:12;;;;;;;0.03;0.03;;;9.30;99.90;;;;;;6299970;22;20018;-89
2021/11/02 14:29:46;;;;;;;0.10;0.10;;;9.20;99.90;;;;;;6325235;22;20448;-83
2021/11/02 14:32:34;;;;;;;0.00;0.00;;;9.20;99.90;;;;;;6298729;22;20368;-83
2021/11/02 14:35:12;;;;;;;0.03;0.03;;;9.20;99.90;;;;;;6298584;22;20022;-83
2021/11/02 14:37:47;;;;;;;0.00;0.00;;;9.10;99.90;;;;;;6273430;22;20046;-87
2021/11/02 14:40:34;;;;;;;0.00;0.00;;;9.10;99.90;;;;;;6298142;22;20329;-87
2021/11/02 14:43:13;;;;;;;0.00;0.00;;;9.10;99.90;;;;;;6297597;22;20027;-87
2021/11/02 14:45:41;;;;;;;0.08;0.08;;;9.10;99.90;;;;;;6323498;22;20015;-87
2021/11/02 14:48:27;;;;;;;0.10;0.10;;;9.10;99.90;;;;;;6323826;22;20023;-82
2021/11/02 14:51:17;;;;;;;0.10;0.10;;;9.10;99.90;;;;;;6324337;22;20412;-86
2021/11/02 14:53:45;;;;;;;0.10;0.10;;;9.10;99.90;;;;;;6306652;22;20418;-83
2021/11/02 14:56:18;;;;;;;0.00;0.00;;;9.00;99.90;;;;;;6297385;22;20463;-88
2021/11/02 14:58:56;;;;;;;0.00;0.00;;;9.00;99.90;;;;;;6299886;22;20022;-90
2021/11/02 15:01:37;;;;;;;0.10;0.10;;;9.00;99.90;;;;;;6302604;22;20019;-90
2021/11/02 15:04:06;;;;;;;0.00;0.00;;;9.00;99.90;;;;;;6297939;22;20019;-89
2021/11/02 15:06:35;;;;;;;0.00;0.00;;;9.10;99.90;;;;;;6298437;22;20022;-86
2021/11/02 15:09:26;;;;;;;0.00;0.00;;;9.00;99.90;;;;;;6324592;22;20007;-87
2021/11/02 15:11:53;;;;;;;0.00;0.00;;;9.10;99.90;;;;;;6299486;22;20047;-89
2021/11/02 15:14:27;;;;;;;0.00;0.00;;;9.00;99.90;;;;;;6298949;22;20018;-89
2021/11/02 15:16:56;;;;;;;0.00;0.00;;;9.00;99.90;;;;;;6298675;22;20023;-87
2021/11/02 15:19:26;;;;;;;0.08;0.08;;;8.90;99.90;;;;;;6297683;22;20049;-87
2021/11/02 15:22:03;;;;;;;0.10;0.10;;;8.90;99.90;;;;;;6298138;22;20023;-85
2021/11/02 15:24:31;;;;;;;0.00;0.00;;;8.80;99.90;;;;;;6299533;22;20057;-91
2021/11/02 15:27:07;;;;;;;0.00;0.00;;;8.80;99.90;;;;;;6299837;22;20022;-89
2021/11/02 15:29:37;;;;;;;0.00;0.00;;;8.70;99.90;;;;;;6299250;22;20443;-89
2021/11/02 15:32:07;;;;;;;0.10;0.10;;;8.70;99.90;;;;;;6299451;22;20332;-86
2021/11/02 15:34:44;;;;;;;0.00;0.00;;;8.60;99.90;;;;;;6298376;22;20350;-87
2021/11/02 15:37:32;;;;;;;0.05;0.05;;;8.60;99.90;;;;;;6298640;22;20019;-87
2021/11/02 15:40:09;;;;;;;0.10;0.10;;;8.50;99.90;;;;;;6297923;22;20058;-86
2021/11/02 15:42:45;;;;;;;0.10;0.10;;;8.40;99.90;;;;;;6298497;22;20020;-81
2021/11/02 15:45:32;;;;;;;0.10;0.10;;;8.40;99.90;;;;;;6325345;22;20781;-86
2021/11/02 15:48:10;;;;;;;0.00;0.00;;;8.40;99.90;;;;;;6297146;22;20023;-80
2021/11/02 15:50:48;;;;;;;0.00;0.00;;;8.40;99.90;;;;;;6297341;22;20015;-86
2021/11/02 15:53:19;;;;;;;0.00;0.00;;;8.30;99.90;;;;;;6297023;22;20090;-86
2021/11/02 15:55:45;;;;;;;0.10;0.10;;;8.30;99.90;;;;;;6297805;22;20049;-80
2021/11/02 15:58:14;;;;;;;0.00;0.00;;;8.30;99.90;;;;;;6248769;22;20105;-81
2021/11/02 16:00:44;;;;;;;0.20;0.20;;;8.20;99.90;;;;;;6297785;22;20023;-81
2021/11/02 16:03:12;;;;;;;0.00;0.00;;;8.20;99.90;;;;;;6298067;22;20037;-86
2021/11/02 16:05:42;;;;;;;0.20;0.15;;;8.20;99.90;;;;;;6323475;22;20098;-86
2021/11/02 16:08:14;;;;;;;0.00;0.00;;;8.20;99.90;;;;;;6299308;22;20806;-86
2021/11/02 16:10:42;;;;;;;0.00;0.00;;;8.20;99.90;;;;;;6298136;22;20022;-86
2021/11/02 16:13:10;;;;;;;0.08;0.08;;;8.10;99.90;;;;;;6298016;22;20084;-86
2021/11/02 16:15:42;;;;;;;0.10;0.10;;;8.20;99.90;;;;;;6323896;22;20047;-87
2021/11/02 16:18:23;;;;;;;0.10;0.10;;;8.10;99.90;;;;;;6298471;22;20173;-88
2021/11/02 16:20:59;;;;;;;0.00;0.00;;;8.10;99.90;;;;;;6297510;22;20019;-87
2021/11/02 16:23:38;;;;;;;0.10;0.10;;;8.00;99.90;;;;;;6297731;22;20023;-86
2021/11/02 16:26:17;;;;;;;0.00;0.00;;;8.00;99.90;;;;;;6298391;22;20030;-87
2021/11/02 16:28:43;;;;;;;0.10;0.10;;;8.00;99.90;;;;;;6298311;22;20019;-83
2021/11/02 16:31:21;;;;;;;0.03;0.03;;;8.00;99.90;;;;;;6248672;22;20046;-84
2021/11/02 16:33:48;;;;;;;0.10;0.10;;;8.00;99.90;;;;;;6299223;22;20017;-86
2021/11/02 16:36:23;;;;;;;0.10;0.10;;;8.00;99.90;;;;;;6298192;22;20098;-86
2021/11/02 16:38:52;;;;;;;0.10;0.10;;;8.00;99.90;;;;;;6298106;22;20026;-86
2021/11/02 16:41:23;;;;;;;0.00;0.00;;;8.00;99.90;;;;;;6272151;22;20348;-86
2021/11/02 16:44:01;;;;;;;0.03;0.03;;;8.10;99.90;;;;;;6272208;22;20027;-86
2021/11/02 16:46:31;;;;;;;0.10;0.10;;;8.00;99.90;;;;;;6299688;22;20023;-83
2021/11/02 16:49:04;;;;;;;0.08;0.08;;;8.00;99.90;;;;;;6298694;22;20404;-83
2021/11/02 16:51:56;;;;;;;0.00;0.00;;;8.00;99.90;;;;;;6298956;22;20011;-83
2021/11/02 16:54:28;;;;;;;0.10;0.10;;;8.00;99.90;;;;;;6283596;22;20088;-86
2021/11/02 16:57:00;;;;;;;0.32;0.10;;;7.90;99.90;;;;;;6299664;22;20019;-86
2021/11/02 16:59:39;;;;;;;0.10;0.10;;;7.80;99.90;;;;;;6298756;22;20066;-84
2021/11/02 17:02:17;;;;;;;0.00;0.00;;;7.80;99.90;;;;;;6298853;22;20019;-83
2021/11/02 17:05:00;;;;;;;0.00;0.00;;;7.80;99.90;;;;;;6297479;22;20039;-83
2021/11/02 17:07:35;;;;;;;0.10;0.10;;;7.70;99.90;;;;;;6271371;22;20019;-83
2021/11/02 17:10:22;;;;;;;0.10;0.10;;;7.60;99.90;;;;;;6298320;22;20012;-86
2021/11/02 17:12:51;;;;;;;0.00;0.00;;;7.60;99.90;;;;;;6298510;22;20016;-86
2021/11/02 17:15:44;;;;;;;0.10;0.10;;;7.60;99.90;;;;;;6299555;22;20026;-83
2021/11/02 17:18:17;;;;;;;0.10;0.10;;;7.50;99.90;;;;;;6299381;22;20042;-83
2021/11/02 17:20:46;;;;;;;0.10;0.10;;;7.50;99.90;;;;;;6273462;22;20358;-82
2021/11/02 17:23:19;;;;;;;0.10;0.10;;;7.50;99.90;;;;;;6297922;22;20019;-83
2021/11/02 17:25:47;;;;;;;0.10;0.10;;;7.40;99.90;;;;;;6300572;22;20356;-86
2021/11/02 17:28:14;;;;;;;0.00;0.00;;;7.40;99.90;;;;;;6302185;22;20019;-86
2021/11/02 17:30:41;;;;;;;0.00;0.00;;;7.30;99.90;;;;;;6301910;22;20062;-83
2021/11/02 17:33:08;;;;;;;0.00;0.00;;;7.40;99.90;;;;;;6250926;22;20039;-83
2021/11/02 17:35:37;;;;;;;0.00;0.00;;;7.30;99.90;;;;;;6274974;22;20020;-86
2021/11/02 17:38:05;;;;;;;0.10;0.10;;;7.30;99.90;;;;;;6301222;22;20093;-83
2021/11/02 17:40:35;;;;;;;0.10;0.10;;;7.30;99.90;;;;;;6249955;22;20019;-83
2021/11/02 17:43:03;;;;;;;0.10;0.10;;;7.30;99.90;;;;;;6300860;22;20515;-87
2021/11/02 17:45:30;;;;;;;0.00;0.00;;;7.30;99.90;;;;;;6274724;22;20026;-87
2021/11/02 17:47:58;;;;;;;0.10;0.10;;;7.20;99.90;;;;;;6248338;22;20367;-83
2021/11/02 17:50:29;;;;;;;0.10;0.10;;;7.20;99.90;;;;;;6273976;22;20019;-82
2021/11/02 17:52:56;;;;;;;0.05;0.05;;;7.20;99.90;;;;;;6299475;22;20011;-81
2021/11/02 17:55:23;;;;;;;0.10;0.10;;;7.10;99.90;;;;;;6249514;22;20011;-87
2021/11/02 17:57:53;;;;;;;0.10;0.10;;;7.10;99.90;;;;;;6299424;22;20021;-87
2021/11/02 18:00:23;;;;;;;0.10;0.10;;;7.10;99.90;;;;;;6299747;22;20019;-87
2021/11/02 18:02:52;;;;;;;0.10;0.10;;;7.00;99.90;;;;;;6300045;22;20020;-86
2021/11/02 18:05:29;;;;;;;0.10;0.10;;;7.00;99.90;;;;;;6299314;22;20018;-87
2021/11/02 18:07:58;;;;;;;0.10;0.10;;;7.00;99.90;;;;;;6299987;22;20019;-86
2021/11/02 18:10:26;;;;;;;0.00;0.00;;;7.00;99.90;;;;;;6275059;22;20015;-83
2021/11/02 18:12:54;;;;;;;0.10;0.10;;;7.10;99.90;;;;;;6274302;22;20493;-83
2021/11/02 18:15:20;;;;;;;0.00;0.00;;;7.00;99.90;;;;;;6299649;22;20015;-83
2021/11/02 18:17:52;;;;;;;0.10;0.10;;;7.00;99.90;;;;;;6299317;22;20146;-83
2021/11/02 18:20:21;;;;;;;0.10;0.10;;;7.00;99.90;;;;;;6299632;22;20019;-87
2021/11/02 18:22:54;;;;;;;0.10;0.10;;;7.10;99.90;;;;;;6273148;22;20019;-87
2021/11/02 18:25:22;;;;;;;0.10;0.10;;;7.10;99.90;;;;;;6299543;22;20054;-83
2021/11/02 18:27:52;;;;;;;0.10;0.10;;;7.10;99.90;;;;;;6273877;22;20046;-83
2021/11/02 18:30:21;;;;;;;0.10;0.10;;;7.10;99.90;;;;;;6299103;22;20456;-82